createdAt,value
2023-03-17T00:01:37.204Z,62.47
2023-03-17T00:04:07.250Z,62.38
2023-03-17T00:06:37.200Z,62.50
2023-03-17T00:09:07.337Z,62.07
2023-03-17T00:11:37.196Z,62.06
2023-03-17T00:14:09.686Z,62.13
2023-03-17T00:16:42.389Z,62.67
2023-03-17T00:19:18.105Z,62.17
2023-03-17T00:21:48.680Z,62.60
2023-03-17T00:24:20.757Z,63.02
2023-03-17T00:26:50.649Z,62.55
2023-03-17T00:29:23.204Z,62.75
2023-03-17T00:31:53.623Z,63.16
2023-03-17T00:34:23.997Z,62.93
2023-03-17T00:36:56.207Z,63.18
2023-03-17T00:39:27.249Z,63.17
2023-03-17T00:41:57.258Z,62.72
2023-03-17T00:44:31.208Z,62.96
2023-03-17T00:47:01.727Z,62.90
2023-03-17T00:49:32.816Z,63.08
2023-03-17T00:52:03.376Z,62.47
2023-03-17T00:54:33.973Z,63.04
2023-03-17T00:57:04.022Z,62.76
2023-03-17T00:59:41.120Z,63.01
2023-03-17T01:02:13.320Z,63.78
2023-03-17T01:04:52.674Z,63.57
2023-03-17T01:07:23.126Z,63.66
2023-03-17T01:09:53.247Z,63.46
2023-03-17T01:12:23.352Z,63.50
2023-03-17T01:14:55.752Z,63.72
2023-03-17T01:17:25.857Z,63.51
2023-03-17T01:19:55.792Z,63.61
2023-03-17T01:22:25.714Z,63.80
2023-03-17T01:24:55.588Z,63.67
2023-03-17T01:27:25.527Z,63.97
2023-03-17T01:29:58.690Z,63.58
2023-03-17T01:32:28.556Z,63.72
2023-03-17T01:34:59.071Z,63.32
2023-03-17T01:37:29.025Z,63.24
2023-03-17T01:39:59.765Z,63.61
2023-03-17T01:42:29.649Z,63.37
2023-03-17T01:45:05.706Z,63.73
2023-03-17T01:47:36.250Z,63.70
2023-03-17T01:50:09.519Z,63.62
2023-03-17T01:52:42.588Z,63.73
2023-03-17T01:55:15.452Z,63.86
2023-03-17T01:57:50.907Z,64.08
2023-03-17T02:00:26.722Z,64.07
2023-03-17T02:02:58.413Z,64.50
2023-03-17T02:05:31.148Z,64.06
2023-03-17T02:08:01.312Z,63.78
2023-03-17T02:10:32.821Z,64.03
2023-03-17T02:13:05.809Z,63.88
2023-03-17T02:15:48.554Z,63.93
2023-03-17T02:18:20.297Z,64.15
2023-03-17T02:21:26.213Z,64.66
2023-03-17T02:23:59.309Z,64.18
2023-03-17T02:26:31.618Z,63.89
2023-03-17T02:29:01.556Z,63.75
2023-03-17T02:31:31.482Z,63.92
2023-03-17T02:34:01.489Z,64.19
2023-03-17T02:36:32.132Z,64.04
2023-03-17T02:39:04.940Z,63.74
2023-03-17T02:41:35.102Z,64.13
2023-03-17T02:44:05.158Z,64.21
2023-03-17T02:46:34.981Z,64.22
2023-03-17T02:49:06.172Z,64.26
2023-03-17T02:51:36.913Z,64.73
2023-03-17T02:54:09.682Z,64.54
2023-03-17T02:56:40.221Z,64.36
2023-03-17T02:59:09.974Z,64.27
2023-03-17T03:01:40.261Z,63.97
2023-03-17T03:04:10.263Z,64.52
2023-03-17T03:06:40.034Z,64.67
2023-03-17T03:09:12.917Z,64.66
2023-03-17T03:11:43.298Z,64.70
2023-03-17T03:14:13.913Z,64.86
2023-03-17T03:16:43.937Z,65.26
2023-03-17T03:19:13.757Z,64.86
2023-03-17T03:21:43.591Z,65.24
2023-03-17T03:24:16.018Z,65.51
2023-03-17T03:26:46.020Z,65.24
2023-03-17T03:29:16.953Z,64.68
2023-03-17T03:31:48.290Z,65.24
2023-03-17T03:34:18.327Z,64.88
2023-03-17T03:36:48.088Z,65.21
2023-03-17T03:39:20.638Z,65.31
2023-03-17T03:41:50.560Z,65.14
2023-03-17T03:44:20.306Z,65.70
2023-03-17T03:46:50.175Z,65.92
2023-03-17T03:49:19.972Z,66.10
2023-03-17T03:51:49.773Z,66.12
2023-03-17T03:54:22.173Z,66.19
2023-03-17T03:56:52.024Z,66.33
2023-03-17T03:59:21.928Z,66.11
2023-03-17T04:01:51.746Z,66.22
2023-03-17T04:04:22.989Z,65.98
2023-03-17T04:06:52.946Z,65.86
2023-03-17T04:09:28.646Z,65.91
2023-03-17T04:11:58.442Z,66.23
2023-03-17T04:14:28.704Z,66.23
2023-03-17T04:16:58.762Z,66.04
2023-03-17T04:19:28.966Z,65.72
2023-03-17T04:21:59.263Z,66.17
2023-03-17T04:24:31.751Z,65.99
2023-03-17T04:27:06.147Z,65.99
2023-03-17T04:29:39.041Z,65.92
2023-03-17T04:32:09.403Z,65.71
2023-03-17T04:34:39.637Z,65.14
2023-03-17T04:37:09.672Z,65.85
2023-03-17T04:39:42.383Z,65.77
2023-03-17T04:42:12.925Z,66.07
2023-03-17T04:44:43.169Z,65.81
2023-03-17T04:47:13.611Z,65.65
2023-03-17T04:49:43.641Z,65.90
2023-03-17T04:52:13.491Z,65.88
2023-03-17T04:54:46.117Z,65.44
2023-03-17T04:57:16.200Z,65.54
2023-03-17T04:59:45.959Z,65.51
2023-03-17T05:02:15.819Z,65.12
2023-03-17T05:04:45.892Z,65.27
2023-03-17T05:07:16.321Z,65.63
2023-03-17T05:09:48.792Z,65.86
2023-03-17T05:12:18.752Z,65.97
2023-03-17T05:14:48.651Z,65.89
2023-03-17T05:17:18.472Z,65.63
2023-03-17T05:19:48.371Z,65.54
2023-03-17T05:22:18.332Z,65.70
2023-03-17T05:24:51.052Z,65.33
2023-03-17T05:27:22.830Z,65.17
2023-03-17T05:29:52.764Z,65.30
2023-03-17T05:32:22.567Z,65.61
2023-03-17T05:34:52.455Z,65.58
2023-03-17T05:37:22.804Z,65.68
2023-03-17T05:39:55.344Z,65.48
2023-03-17T05:42:25.218Z,65.73
2023-03-17T05:44:55.175Z,65.70
2023-03-17T05:47:25.548Z,65.47
2023-03-17T05:49:55.486Z,65.77
2023-03-17T05:52:25.350Z,65.76
2023-03-17T05:54:58.400Z,65.77
2023-03-17T05:57:28.467Z,65.44
2023-03-17T05:59:58.342Z,65.45
2023-03-17T06:02:28.280Z,65.48
2023-03-17T06:04:58.135Z,65.51
2023-03-17T06:07:33.090Z,65.56
2023-03-17T06:10:11.900Z,65.92
2023-03-17T06:12:42.042Z,65.90
2023-03-17T06:15:12.701Z,65.83
2023-03-17T06:17:42.686Z,65.60
2023-03-17T06:20:14.549Z,65.58
2023-03-17T06:23:02.187Z,64.71
2023-03-17T06:25:37.137Z,64.99
2023-03-17T06:28:10.280Z,65.17
2023-03-17T06:30:40.933Z,65.08
2023-03-17T06:33:11.198Z,65.06
2023-03-17T06:35:41.244Z,64.99
2023-03-17T06:38:11.185Z,65.03
2023-03-17T06:40:43.675Z,65.20
2023-03-17T06:43:13.615Z,64.92
2023-03-17T06:45:43.733Z,65.34
2023-03-17T06:48:13.663Z,65.69
2023-03-17T06:50:43.436Z,65.48
2023-03-17T06:53:13.554Z,65.30
2023-03-17T06:55:45.998Z,64.58
2023-03-17T06:58:16.102Z,65.18
2023-03-17T07:00:47.311Z,64.89
2023-03-17T07:03:17.370Z,64.65
2023-03-17T07:05:47.926Z,64.24
2023-03-17T07:08:18.342Z,64.14
2023-03-17T07:10:51.548Z,63.32
2023-03-17T07:13:22.478Z,63.39
2023-03-17T07:15:55.245Z,63.49
2023-03-17T07:18:25.670Z,63.60
2023-03-17T07:20:56.481Z,63.76
2023-03-17T07:23:27.339Z,62.87
2023-03-17T07:26:00.557Z,62.69
2023-03-17T07:28:30.509Z,62.62
2023-03-17T07:31:02.979Z,61.85
2023-03-17T07:33:33.843Z,61.99
2023-03-17T07:36:05.293Z,61.59
2023-03-17T07:38:35.193Z,61.44
2023-03-17T07:41:09.998Z,60.45
2023-03-17T07:43:41.348Z,60.92
2023-03-17T07:46:11.483Z,60.27
2023-03-17T07:48:43.561Z,59.45
2023-03-17T07:51:17.296Z,60.21
2023-03-17T07:53:47.724Z,60.95
2023-03-17T07:56:21.542Z,60.04
2023-03-17T07:58:52.348Z,59.39
2023-03-17T08:01:23.598Z,58.94
2023-03-17T08:03:53.663Z,59.98
2023-03-17T08:06:27.317Z,60.31
2023-03-17T08:08:57.754Z,58.15
2023-03-17T08:11:30.345Z,59.39
2023-03-17T08:14:01.600Z,59.35
2023-03-17T08:16:31.566Z,59.61
2023-03-17T08:19:04.035Z,59.50
2023-03-17T08:21:33.928Z,57.68
2023-03-17T08:24:04.604Z,55.82
2023-03-17T08:26:37.851Z,57.01
2023-03-17T08:29:08.248Z,57.90
2023-03-17T08:31:38.618Z,57.46
2023-03-17T08:34:08.744Z,57.71
2023-03-17T08:36:39.043Z,56.32
2023-03-17T08:39:10.600Z,56.13
2023-03-17T08:41:43.527Z,55.72
2023-03-17T08:44:13.407Z,56.34
2023-03-17T08:46:43.900Z,55.83
2023-03-17T08:49:14.496Z,56.71
2023-03-17T08:51:45.039Z,55.74
2023-03-17T08:54:15.403Z,56.10
2023-03-17T08:56:47.943Z,55.80
2023-03-17T08:59:17.685Z,56.52
2023-03-17T09:01:47.664Z,55.46
2023-03-17T09:04:17.568Z,54.27
2023-03-17T09:07:02.336Z,55.51
2023-03-17T09:09:34.644Z,54.17
2023-03-17T09:12:09.587Z,54.08
2023-03-17T09:14:43.813Z,53.48
2023-03-17T09:17:15.496Z,53.56
2023-03-17T09:19:45.351Z,53.52
2023-03-17T09:22:16.370Z,52.74
2023-03-17T09:24:46.213Z,54.60
2023-03-17T09:27:18.613Z,54.92
2023-03-17T09:29:48.554Z,53.21
2023-03-17T09:32:18.975Z,54.15
2023-03-17T09:34:51.413Z,54.21
2023-03-17T09:37:21.473Z,52.95
2023-03-17T09:39:51.479Z,54.02
2023-03-17T09:42:42.394Z,52.01
2023-03-17T09:45:30.519Z,53.00
2023-03-17T09:48:27.455Z,51.61
2023-03-17T09:51:00.423Z,52.37
2023-03-17T09:53:34.823Z,51.88
2023-03-17T09:56:10.910Z,52.99
2023-03-17T09:58:50.050Z,51.51
2023-03-17T10:01:20.993Z,52.63
2023-03-17T10:03:51.710Z,51.36
2023-03-17T10:06:33.599Z,51.98
2023-03-17T10:09:10.405Z,51.69
2023-03-17T10:11:44.796Z,51.56
2023-03-17T10:14:31.629Z,50.73
2023-03-17T10:17:06.557Z,51.70
2023-03-17T10:19:43.125Z,51.74
2023-03-17T10:22:21.952Z,49.74
2023-03-17T10:24:55.750Z,51.40
2023-03-17T10:27:27.463Z,50.95
2023-03-17T10:29:59.989Z,47.75
2023-03-17T10:32:30.426Z,50.58
2023-03-17T10:35:04.151Z,49.31
2023-03-17T10:37:36.798Z,48.10
2023-03-17T10:40:10.423Z,48.64
2023-03-17T10:42:50.660Z,47.79
2023-03-17T10:45:31.010Z,50.06
2023-03-17T10:48:02.797Z,50.35
2023-03-17T10:50:41.250Z,50.15
2023-03-17T10:53:29.453Z,50.39
2023-03-17T10:56:02.612Z,49.49
2023-03-17T10:58:41.805Z,48.92
2023-03-17T11:01:23.938Z,47.62
2023-03-17T11:03:54.057Z,48.97
2023-03-17T11:06:36.542Z,49.14
2023-03-17T11:09:12.678Z,50.13
2023-03-17T11:11:48.431Z,48.30
2023-03-17T11:14:22.747Z,48.78
2023-03-17T11:16:59.181Z,48.40
2023-03-17T11:19:38.915Z,48.57
2023-03-17T11:22:12.879Z,49.88
2023-03-17T11:24:50.777Z,48.31
2023-03-17T11:27:32.490Z,48.05
2023-03-17T11:30:17.786Z,46.46
2023-03-17T11:32:56.674Z,48.21
2023-03-17T11:35:44.504Z,47.56
2023-03-17T11:38:23.106Z,48.65
2023-03-17T11:41:35.814Z,47.36
2023-03-17T11:44:21.358Z,46.11
2023-03-17T11:46:56.612Z,48.07
2023-03-17T11:49:35.277Z,45.66
2023-03-17T11:52:14.596Z,47.52
2023-03-17T11:54:54.160Z,47.43
2023-03-17T11:57:30.284Z,47.85
2023-03-17T12:00:04.091Z,48.04
2023-03-17T12:02:41.508Z,46.68
2023-03-17T12:05:18.903Z,46.64
2023-03-17T12:07:53.268Z,46.93
2023-03-17T12:10:28.811Z,46.84
2023-03-17T12:13:02.686Z,44.89
2023-03-17T12:15:37.610Z,46.09
2023-03-17T12:18:14.903Z,46.80
2023-03-17T12:20:52.788Z,44.66
2023-03-17T12:23:32.181Z,45.64
2023-03-17T12:26:08.261Z,47.06
2023-03-17T12:28:45.289Z,47.33
2023-03-17T12:31:20.479Z,47.62
2023-03-17T12:33:57.846Z,46.17
2023-03-17T12:36:32.086Z,45.28
2023-03-17T12:39:05.692Z,46.27
2023-03-17T12:41:52.388Z,47.09
2023-03-17T12:44:36.394Z,47.40
2023-03-17T12:47:34.275Z,45.84
2023-03-17T12:50:20.816Z,44.08
2023-03-17T12:53:26.745Z,43.95
2023-03-17T12:56:00.071Z,46.17
2023-03-17T12:58:38.640Z,46.07
2023-03-17T13:01:18.662Z,45.33
2023-03-17T13:04:01.029Z,46.30
2023-03-17T13:06:34.887Z,46.32
2023-03-17T13:09:32.727Z,46.09
2023-03-17T13:12:04.264Z,45.24
2023-03-17T13:14:44.925Z,45.83
2023-03-17T13:17:37.781Z,45.80
2023-03-17T13:20:21.153Z,45.02
2023-03-17T13:23:14.884Z,45.20
2023-03-17T13:25:56.350Z,45.88
2023-03-17T13:28:33.144Z,46.13
2023-03-17T13:31:13.331Z,45.32
2023-03-17T13:33:48.676Z,45.96
2023-03-17T13:36:39.580Z,44.78
2023-03-17T13:39:58.659Z,45.45
2023-03-17T13:42:55.508Z,45.47
2023-03-17T13:45:41.653Z,46.54
2023-03-17T13:48:38.046Z,46.75
2023-03-17T13:51:20.757Z,46.63
2023-03-17T13:53:55.790Z,46.92
2023-03-17T13:56:29.793Z,47.03
2023-03-17T13:59:10.395Z,46.15
2023-03-17T14:01:44.919Z,47.35
2023-03-17T14:04:28.454Z,46.57
2023-03-17T14:07:02.545Z,46.74
2023-03-17T14:09:40.467Z,46.33
2023-03-17T14:12:16.308Z,46.64
2023-03-17T14:14:54.199Z,46.01
2023-03-17T14:17:28.923Z,46.80
2023-03-17T14:20:11.147Z,45.68
2023-03-17T14:22:45.862Z,46.10
2023-03-17T14:25:20.288Z,47.13
2023-03-17T14:27:52.903Z,46.86
2023-03-17T14:30:27.824Z,47.32
2023-03-17T14:33:04.064Z,45.56
2023-03-17T14:35:37.992Z,46.12
2023-03-17T14:38:20.714Z,47.22
2023-03-17T14:40:51.380Z,47.59
2023-03-17T14:43:23.367Z,46.86
2023-03-17T14:46:01.790Z,47.31
2023-03-17T14:48:34.770Z,47.61
2023-03-17T14:51:08.144Z,47.32
2023-03-17T14:53:41.882Z,47.09
2023-03-17T14:56:12.593Z,46.97
2023-03-17T14:58:46.179Z,46.91
2023-03-17T15:01:21.049Z,45.45
2023-03-17T15:03:59.334Z,46.09
2023-03-17T15:06:31.270Z,46.81
2023-03-17T15:09:03.213Z,46.59
2023-03-17T15:11:42.731Z,46.99
2023-03-17T15:14:21.300Z,47.12
2023-03-17T15:16:55.888Z,46.69
2023-03-17T15:19:28.906Z,47.43
2023-03-17T15:22:00.670Z,47.79
2023-03-17T15:24:41.782Z,47.17
2023-03-17T15:27:18.193Z,46.27
2023-03-17T15:29:49.931Z,47.02
2023-03-17T15:32:25.172Z,47.40
2023-03-17T15:34:57.171Z,47.25
2023-03-17T15:37:29.156Z,47.69
2023-03-17T15:39:59.755Z,47.79
2023-03-17T15:42:31.788Z,46.91
2023-03-17T15:45:02.086Z,47.52
2023-03-17T15:47:37.017Z,47.70
2023-03-17T15:50:19.372Z,46.27
2023-03-17T15:52:49.404Z,48.33
2023-03-17T15:55:25.885Z,47.45
2023-03-17T15:58:00.051Z,48.10
2023-03-17T16:00:37.359Z,48.05
2023-03-17T16:03:19.659Z,48.53
2023-03-17T16:05:50.517Z,49.36
2023-03-17T16:08:23.330Z,49.18
2023-03-17T16:10:53.330Z,49.38
2023-03-17T16:13:23.632Z,49.01
2023-03-17T16:15:57.425Z,49.00
2023-03-17T16:18:36.241Z,48.67
2023-03-17T16:21:07.864Z,48.85
2023-03-17T16:23:39.153Z,49.10
2023-03-17T16:26:15.592Z,49.38
2023-03-17T16:28:47.779Z,49.42
2023-03-17T16:31:24.960Z,49.59
2023-03-17T16:33:57.998Z,49.29
2023-03-17T16:36:28.447Z,49.37
2023-03-17T16:38:58.421Z,49.71
2023-03-17T16:41:30.673Z,49.08
2023-03-17T16:44:05.598Z,49.62
2023-03-17T16:46:37.320Z,49.42
2023-03-17T16:49:09.804Z,49.55
2023-03-17T16:51:39.622Z,49.72
2023-03-17T16:54:09.691Z,48.71
2023-03-17T16:56:40.764Z,49.11
2023-03-17T16:59:13.233Z,48.50
2023-03-17T17:01:43.059Z,49.18
2023-03-17T17:04:15.516Z,49.42
2023-03-17T17:06:45.645Z,49.38
2023-03-17T17:09:15.582Z,49.63
2023-03-17T17:11:45.647Z,49.69
2023-03-17T17:14:15.827Z,49.95
2023-03-17T17:16:48.198Z,49.56
2023-03-17T17:19:21.097Z,49.39
2023-03-17T17:21:50.917Z,49.92
2023-03-17T17:24:21.075Z,49.97
2023-03-17T17:26:51.122Z,50.16
2023-03-17T17:29:20.979Z,49.28
2023-03-17T17:31:50.976Z,49.83
2023-03-17T17:34:23.641Z,50.13
2023-03-17T17:36:53.566Z,50.09
2023-03-17T17:39:23.480Z,50.49
2023-03-17T17:41:53.319Z,50.37
2023-03-17T17:44:23.123Z,50.26
2023-03-17T17:46:53.287Z,50.38
2023-03-17T17:49:25.744Z,51.11
2023-03-17T17:51:55.709Z,51.00
2023-03-17T17:54:25.640Z,51.47
2023-03-17T17:56:55.849Z,51.34
2023-03-17T17:59:27.145Z,51.57
2023-03-17T18:01:57.446Z,51.31
2023-03-17T18:04:29.880Z,51.79
2023-03-17T18:06:59.788Z,51.85
2023-03-17T18:09:31.877Z,51.97
2023-03-17T18:12:01.891Z,52.31
2023-03-17T18:14:31.675Z,52.05
2023-03-17T18:17:01.597Z,52.56
2023-03-17T18:19:34.063Z,52.81
2023-03-17T18:22:04.586Z,52.69
2023-03-17T18:24:36.235Z,53.29
2023-03-17T18:27:06.530Z,53.68
2023-03-17T18:29:36.946Z,53.89
2023-03-17T18:32:08.068Z,53.97
2023-03-17T18:34:43.594Z,54.23
2023-03-17T18:37:16.438Z,54.70
2023-03-17T18:39:55.514Z,55.01
2023-03-17T18:42:35.663Z,54.75
2023-03-17T18:45:06.928Z,55.13
2023-03-17T18:47:38.977Z,55.23
2023-03-17T18:50:18.456Z,55.93
2023-03-17T18:52:48.877Z,56.04
2023-03-17T18:55:19.515Z,55.74
2023-03-17T18:57:50.221Z,56.04
2023-03-17T19:00:20.950Z,56.00
2023-03-17T19:02:50.793Z,56.41
2023-03-17T19:05:23.588Z,56.29
2023-03-17T19:07:53.450Z,56.72
2023-03-17T19:10:23.624Z,56.71
2023-03-17T19:12:53.536Z,56.95
2023-03-17T19:15:23.480Z,56.87
2023-03-17T19:17:53.521Z,56.90
2023-03-17T19:20:26.018Z,57.04
2023-03-17T19:22:57.000Z,57.30
2023-03-17T19:25:26.820Z,57.43
2023-03-17T19:27:56.641Z,57.75
2023-03-17T19:30:27.155Z,57.82
2023-03-17T19:32:57.132Z,58.04
2023-03-17T19:35:29.636Z,58.61
2023-03-17T19:37:59.708Z,58.12
2023-03-17T19:40:29.758Z,58.28
2023-03-17T19:43:00.043Z,58.67
2023-03-17T19:45:30.034Z,58.69
2023-03-17T19:48:00.184Z,58.79
2023-03-17T19:50:33.757Z,58.95
2023-03-17T19:53:03.841Z,58.80
2023-03-17T19:55:34.003Z,58.86
2023-03-17T19:58:05.866Z,59.09
2023-03-17T20:00:36.366Z,58.57
2023-03-17T20:03:06.770Z,58.64
2023-03-17T20:05:39.496Z,59.12
2023-03-17T20:08:09.812Z,59.10
2023-03-17T20:10:39.772Z,59.34
2023-03-17T20:13:09.957Z,59.18
2023-03-17T20:15:40.272Z,59.08
2023-03-17T20:18:11.115Z,59.31
2023-03-17T20:20:49.580Z,59.50
2023-03-17T20:23:19.891Z,59.45
2023-03-17T20:25:49.785Z,59.41
2023-03-17T20:28:20.191Z,59.36
2023-03-17T20:30:51.154Z,59.62
2023-03-17T20:33:21.273Z,59.57
2023-03-17T20:35:53.854Z,59.36
2023-03-17T20:38:24.149Z,59.75
2023-03-17T20:40:54.487Z,59.60
2023-03-17T20:43:24.278Z,59.68
2023-03-17T20:45:54.042Z,59.52
2023-03-17T20:48:24.131Z,59.79
2023-03-17T20:50:58.159Z,60.21
2023-03-17T20:53:28.434Z,60.44
2023-03-17T20:55:59.120Z,60.28
2023-03-17T20:58:30.586Z,60.48
2023-03-17T21:01:01.989Z,60.38
2023-03-17T21:03:32.441Z,60.38
2023-03-17T21:06:04.909Z,60.53
2023-03-17T21:08:36.731Z,61.06
2023-03-17T21:11:08.109Z,61.12
2023-03-17T21:13:38.907Z,61.42
2023-03-17T21:16:08.911Z,61.65
2023-03-17T21:18:38.944Z,62.10
2023-03-17T21:21:11.920Z,63.15
2023-03-17T21:23:41.893Z,62.91
2023-03-17T21:26:15.032Z,63.15
2023-03-17T21:28:45.951Z,64.16
2023-03-17T21:31:17.396Z,64.45
2023-03-17T21:33:50.541Z,64.68
2023-03-17T21:36:23.744Z,64.49
2023-03-17T21:38:56.344Z,64.96
2023-03-17T21:41:33.615Z,65.20
2023-03-17T21:44:08.420Z,65.19
2023-03-17T21:46:38.344Z,65.44
2023-03-17T21:49:08.359Z,65.80
2023-03-17T21:51:41.121Z,65.68
2023-03-17T21:54:10.968Z,66.01
2023-03-17T21:56:41.617Z,67.58
2023-03-17T21:59:14.107Z,66.75
2023-03-17T22:01:44.682Z,67.29
2023-03-17T22:04:15.659Z,67.32
2023-03-17T22:06:53.906Z,68.03
2023-03-17T22:09:23.737Z,67.89
2023-03-17T22:11:53.674Z,68.91
2023-03-17T22:14:23.476Z,68.68
2023-03-17T22:16:53.843Z,68.59
2023-03-17T22:19:23.635Z,68.27
2023-03-17T22:21:56.694Z,69.05
2023-03-17T22:24:26.747Z,68.90
2023-03-17T22:26:56.801Z,69.19
2023-03-17T22:29:27.247Z,69.20
2023-03-17T22:31:57.317Z,69.33
2023-03-17T22:34:28.013Z,69.39
2023-03-17T22:37:01.205Z,70.07
2023-03-17T22:39:31.140Z,69.86
2023-03-17T22:42:01.052Z,70.50
2023-03-17T22:44:30.930Z,70.27
2023-03-17T22:47:01.031Z,71.22
2023-03-17T22:49:31.402Z,71.49
2023-03-17T22:52:04.312Z,72.33
2023-03-17T22:54:34.134Z,72.78
2023-03-17T22:57:05.614Z,71.89
2023-03-17T22:59:36.044Z,72.75
2023-03-17T23:02:06.581Z,73.74
2023-03-17T23:04:37.023Z,73.25
2023-03-17T23:07:09.901Z,73.23
2023-03-17T23:09:41.483Z,73.40
2023-03-17T23:12:12.699Z,74.23
2023-03-17T23:14:42.497Z,74.35
2023-03-17T23:17:13.324Z,74.25
2023-03-17T23:19:45.184Z,75.69
2023-03-17T23:22:17.959Z,74.83
2023-03-17T23:24:48.194Z,74.80
2023-03-17T23:27:18.023Z,74.75
2023-03-17T23:29:53.588Z,74.49
2023-03-17T23:32:23.555Z,74.33
2023-03-17T23:34:53.600Z,75.28
2023-03-17T23:37:27.373Z,76.23
2023-03-17T23:39:57.936Z,75.62
2023-03-17T23:42:29.246Z,76.17
2023-03-17T23:44:59.573Z,76.79
2023-03-17T23:47:31.171Z,76.81
2023-03-17T23:50:00.965Z,77.06
2023-03-17T23:52:36.522Z,77.33
2023-03-17T23:55:06.976Z,76.66
2023-03-17T23:57:37.959Z,76.63
